Time;durP1;ratioP1;P1;durP2;ratioP2;P2;SDS_P1;SDS_P2;PMS_P1;PMS_P2;Temp;Humidity;BMP_temperature;BMP_pressure;BME280_temperature;BME280_humidity;BME280_pressure;Samples;Min_cycle;Max_cycle;Signal;HPM_P1;HPM_P2
2022/11/25 00:01:24;;;;;;;0.20;0.20;;;;;;;;;;4140613;28;20057;-41
2022/11/25 00:03:26;;;;;;;0.32;0.20;;;;;;;;;;4162139;28;20061;-42
2022/11/25 00:05:27;;;;;;;0.30;0.30;;;;;;;;;;4143301;28;20117;-41
2022/11/25 00:07:29;;;;;;;0.25;0.20;;;;;;;;;;4131243;28;20441;-41
2022/11/25 00:09:30;;;;;;;0.20;0.20;;;;;;;;;;4140756;28;20054;-41
2022/11/25 00:11:40;;;;;;;0.40;0.25;;;;;;;;;;4134354;28;20054;-41
2022/11/25 00:13:42;;;;;;;;;;;;;;;;;;4135772;28;20050;-41
2022/11/25 00:15:43;;;;;;;0.10;0.10;;;;;;;;;;4140335;28;19977;-41
2022/11/25 00:17:44;;;;;;;1.25;0.20;;;;;;;;;;4140918;28;20049;-42
2022/11/25 00:19:47;;;;;;;0.57;0.40;;;;;;;;;;4129672;28;20062;-41
2022/11/25 00:21:48;;;;;;;0.30;0.22;;;;;;;;;;4133665;28;20485;-42
2022/11/25 00:23:52;;;;;;;0.30;0.20;;;;;;;;;;4147330;28;20057;-42
2022/11/25 00:25:53;;;;;;;0.10;0.10;;;;;;;;;;4147058;28;20049;-42
2022/11/25 00:27:54;;;;;;;0.52;0.40;;;;;;;;;;4129691;28;20453;-42
2022/11/25 00:29:59;;;;;;;0.20;0.20;;;;;;;;;;4132116;28;20062;-46
2022/11/25 00:32:00;;;;;;;0.43;0.20;;;;;;;;;;4124020;28;20093;-42
2022/11/25 00:34:02;;;;;;;0.20;0.20;;;;;;;;;;4122219;28;20054;-43
2022/11/25 00:36:04;;;;;;;0.40;0.40;;;;;;;;;;4134405;28;20046;-42
2022/11/25 00:38:05;;;;;;;0.20;0.20;;;;;;;;;;4128239;28;20085;-41
2022/11/25 00:40:07;;;;;;;0.32;0.30;;;;;;;;;;4146874;28;20124;-41
2022/11/25 00:44:34;;;;;;;0.38;0.30;;;;;;;;;;4133172;28;20476;-42
2022/11/25 00:46:36;;;;;;;0.17;0.17;;;;;;;;;;4146612;28;20563;-41
2022/11/25 00:48:37;;;;;;;0.30;0.28;;;;;;;;;;4139687;28;20058;-43
2022/11/25 00:50:39;;;;;;;0.30;0.30;;;;;;;;;;4129307;28;20054;-41
2022/11/25 00:52:40;;;;;;;0.22;0.20;;;;;;;;;;4158952;28;20058;-42
2022/11/25 00:54:43;;;;;;;0.40;0.32;;;;;;;;;;4133632;28;20428;-42
2022/11/25 00:56:45;;;;;;;0.25;0.20;;;;;;;;;;4129336;28;20058;-41
2022/11/25 00:58:46;;;;;;;0.52;0.40;;;;;;;;;;4146699;28;20555;-42
2022/11/25 01:00:48;;;;;;;0.38;0.20;;;;;;;;;;4146565;28;20058;-41
2022/11/25 01:02:49;;;;;;;0.30;0.20;;;;;;;;;;4131808;28;20085;-41
2022/11/25 01:04:50;;;;;;;0.22;0.20;;;;;;;;;;4128595;28;20057;-42
2022/11/25 01:06:53;;;;;;;0.55;0.30;;;;;;;;;;4120389;28;20054;-42
2022/11/25 01:08:54;;;;;;;0.13;0.13;;;;;;;;;;4140992;28;20592;-43
2022/11/25 01:11:04;;;;;;;0.13;0.10;;;;;;;;;;4099116;28;20075;-42
2022/11/25 01:13:06;;;;;;;0.20;0.20;;;;;;;;;;4120123;28;20179;-43
2022/11/25 01:15:07;;;;;;;0.65;0.30;;;;;;;;;;4121383;28;20097;-41
2022/11/25 01:17:09;;;;;;;0.20;0.20;;;;;;;;;;4109368;28;20050;-41
2022/11/25 01:19:11;;;;;;;1.08;0.65;;;;;;;;;;4111931;28;20503;-41
2022/11/25 01:21:17;;;;;;;0.40;0.20;;;;;;;;;;4112552;28;20593;-42
2022/11/25 01:23:19;;;;;;;0.20;0.20;;;;;;;;;;4114200;28;20419;-41
2022/11/25 01:25:21;;;;;;;0.15;0.15;;;;;;;;;;4126220;28;20050;-42
2022/11/25 01:27:22;;;;;;;0.20;0.20;;;;;;;;;;4112577;28;20451;-42
2022/11/25 01:29:24;;;;;;;0.85;0.13;;;;;;;;;;4112815;28;20062;-41
2022/11/25 01:31:30;;;;;;;0.28;0.20;;;;;;;;;;4122535;28;20494;-42
2022/11/25 01:33:32;;;;;;;0.30;0.20;;;;;;;;;;4116959;28;20510;-42
2022/11/25 01:35:36;;;;;;;0.63;0.20;;;;;;;;;;4128346;28;20046;-41
2022/11/25 01:37:38;;;;;;;0.17;0.15;;;;;;;;;;4125213;28;20532;-41
2022/11/25 01:39:39;;;;;;;0.80;0.30;;;;;;;;;;4122236;28;20106;-42
2022/11/25 01:41:40;;;;;;;0.20;0.20;;;;;;;;;;4130079;28;20065;-41
2022/11/25 01:43:42;;;;;;;0.20;0.20;;;;;;;;;;4111616;28;20051;-42
2022/11/25 01:45:43;;;;;;;0.10;0.10;;;;;;;;;;4128552;28;20410;-41
2022/11/25 01:47:44;;;;;;;0.22;0.22;;;;;;;;;;4135915;28;20050;-41
2022/11/25 01:49:49;;;;;;;0.20;0.20;;;;;;;;;;4129617;28;20054;-41
2022/11/25 01:51:56;;;;;;;0.30;0.30;;;;;;;;;;4099154;28;20475;-41
2022/11/25 01:54:00;;;;;;;0.50;0.30;;;;;;;;;;4129858;28;20410;-42
2022/11/25 01:56:02;;;;;;;0.30;0.20;;;;;;;;;;4144712;28;20454;-41
2022/11/25 01:58:13;;;;;;;0.52;0.20;;;;;;;;;;4144750;28;20057;-42
2022/11/25 02:00:15;;;;;;;0.38;0.38;;;;;;;;;;4081351;29;20055;-41
2022/11/25 02:02:19;;;;;;;0.30;0.25;;;;;;;;;;4120226;28;20054;-41
2022/11/25 02:04:22;;;;;;;0.15;0.15;;;;;;;;;;4132803;28;20469;-42
2022/11/25 02:06:41;;;;;;;0.30;0.30;;;;;;;;;;4131662;28;20509;-41
2022/11/25 02:08:45;;;;;;;0.10;0.10;;;;;;;;;;4115907;28;20109;-42
2022/11/25 02:10:47;;;;;;;0.30;0.20;;;;;;;;;;4145092;28;20365;-42
2022/11/25 02:12:48;;;;;;;0.10;0.10;;;;;;;;;;4131948;28;20054;-42
2022/11/25 02:14:50;;;;;;;0.70;0.38;;;;;;;;;;4148959;28;20057;-41
2022/11/25 02:16:52;;;;;;;0.32;0.30;;;;;;;;;;4160699;28;20398;-42
2022/11/25 02:18:53;;;;;;;0.20;0.20;;;;;;;;;;4139938;28;20049;-41
2022/11/25 02:20:56;;;;;;;0.20;0.20;;;;;;;;;;4163923;28;20064;-42
2022/11/25 02:23:38;;;;;;;0.17;0.17;;;;;;;;;;4134731;28;20054;-43
2022/11/25 02:25:40;;;;;;;0.28;0.22;;;;;;;;;;4115165;28;20479;-41
2022/11/25 02:27:49;;;;;;;0.20;0.20;;;;;;;;;;4143369;28;20061;-43
2022/11/25 02:29:51;;;;;;;0.30;0.20;;;;;;;;;;4150115;28;20058;-41
2022/11/25 02:31:53;;;;;;;0.30;0.20;;;;;;;;;;4147612;28;20562;-41
2022/11/25 02:33:54;;;;;;;0.17;0.17;;;;;;;;;;4131480;28;20134;-41
2022/11/25 02:35:58;;;;;;;0.30;0.30;;;;;;;;;;4129468;28;20582;-43
2022/11/25 02:38:12;;;;;;;0.28;0.10;;;;;;;;;;4146448;28;20085;-41
2022/11/25 02:40:15;;;;;;;0.25;0.20;;;;;;;;;;4147536;28;20049;-43
2022/11/25 02:42:18;;;;;;;0.20;0.13;;;;;;;;;;4114951;28;20062;-42
2022/11/25 02:44:20;;;;;;;0.20;0.20;;;;;;;;;;4114874;28;20364;-41
2022/11/25 02:46:23;;;;;;;0.50;0.30;;;;;;;;;;4132593;28;20046;-42
2022/11/25 02:48:27;;;;;;;0.28;0.28;;;;;;;;;;4121395;28;20058;-42
2022/11/25 02:50:29;;;;;;;0.35;0.20;;;;;;;;;;4115098;28;20454;-42
2022/11/25 02:52:30;;;;;;;0.30;0.30;;;;;;;;;;4143864;28;20100;-42
2022/11/25 02:54:31;;;;;;;0.10;0.10;;;;;;;;;;4127967;28;20427;-43
2022/11/25 02:56:35;;;;;;;0.20;0.10;;;;;;;;;;4114828;28;20065;-42
2022/11/25 02:58:37;;;;;;;0.20;0.20;;;;;;;;;;4156880;28;20049;-44
2022/11/25 03:00:39;;;;;;;0.20;0.20;;;;;;;;;;4118369;28;20058;-43
2022/11/25 03:02:40;;;;;;;0.20;0.20;;;;;;;;;;4147573;28;20053;-41
2022/11/25 03:04:42;;;;;;;0.20;0.20;;;;;;;;;;4147833;28;20058;-41
2022/11/25 03:06:43;;;;;;;0.15;0.10;;;;;;;;;;4130285;28;20070;-41
2022/11/25 03:08:45;;;;;;;0.15;0.15;;;;;;;;;;4130930;28;20054;-42
2022/11/25 03:10:48;;;;;;;0.20;0.20;;;;;;;;;;4146703;28;20092;-42
2022/11/25 03:12:50;;;;;;;0.47;0.17;;;;;;;;;;4125684;28;20402;-44
2022/11/25 03:14:51;;;;;;;0.20;0.20;;;;;;;;;;4139233;28;20054;-43
2022/11/25 03:16:53;;;;;;;0.20;0.20;;;;;;;;;;4146904;28;20054;-44
2022/11/25 03:18:54;;;;;;;0.25;0.20;;;;;;;;;;4146727;28;20058;-41
2022/11/25 03:20:56;;;;;;;0.38;0.20;;;;;;;;;;4146518;28;20120;-41
2022/11/25 03:22:59;;;;;;;0.13;0.13;;;;;;;;;;4114289;28;20051;-42
2022/11/25 03:25:01;;;;;;;0.82;0.30;;;;;;;;;;4130823;28;20145;-42
2022/11/25 03:27:03;;;;;;;0.10;0.10;;;;;;;;;;4147747;28;20054;-41
2022/11/25 03:29:04;;;;;;;0.10;0.10;;;;;;;;;;4146796;28;20062;-42
2022/11/25 03:31:10;;;;;;;0.30;0.20;;;;;;;;;;4156274;28;20057;-44
2022/11/25 03:33:12;;;;;;;0.40;0.28;;;;;;;;;;4157061;28;20058;-42
2022/11/25 03:35:14;;;;;;;0.20;0.20;;;;;;;;;;4146363;28;20355;-42
2022/11/25 03:37:18;;;;;;;0.13;0.10;;;;;;;;;;4158904;28;20054;-41
2022/11/25 03:39:19;;;;;;;0.20;0.20;;;;;;;;;;4153073;28;20493;-43
2022/11/25 03:41:21;;;;;;;0.17;0.13;;;;;;;;;;4162634;28;20112;-43
2022/11/25 03:43:22;;;;;;;0.20;0.20;;;;;;;;;;4130181;28;20050;-42
2022/11/25 03:45:23;;;;;;;0.47;0.28;;;;;;;;;;4147757;28;20057;-43
2022/11/25 03:47:25;;;;;;;0.38;0.25;;;;;;;;;;4124660;28;20426;-44
2022/11/25 03:49:26;;;;;;;0.40;0.20;;;;;;;;;;4155260;28;20064;-41
2022/11/25 03:51:29;;;;;;;0.70;0.20;;;;;;;;;;4135642;28;20101;-43
2022/11/25 03:53:30;;;;;;;0.20;0.20;;;;;;;;;;4112734;28;20121;-42
2022/11/25 03:55:33;;;;;;;0.38;0.20;;;;;;;;;;4130082;28;20409;-43
2022/11/25 03:57:34;;;;;;;1.13;0.20;;;;;;;;;;4154826;28;20107;-41
2022/11/25 03:59:36;;;;;;;0.20;0.20;;;;;;;;;;4151419;28;20109;-42
2022/11/25 04:01:38;;;;;;;0.50;0.22;;;;;;;;;;4127659;28;20556;-44
2022/11/25 04:03:39;;;;;;;0.55;0.10;;;;;;;;;;4147432;28;20057;-42
2022/11/25 04:05:40;;;;;;;0.22;0.20;;;;;;;;;;4113507;28;20158;-44
2022/11/25 04:07:42;;;;;;;0.22;0.10;;;;;;;;;;4147668;28;20058;-43
2022/11/25 04:09:43;;;;;;;0.10;0.10;;;;;;;;;;4145966;28;20064;-42
2022/11/25 04:14:17;;;;;;;;;;;;;;;;;;4162914;28;20475;-42
2022/11/25 04:16:22;;;;;;;0.50;0.30;;;;;;;;;;4129452;28;19921;-43
2022/11/25 04:18:25;;;;;;;0.30;0.20;;;;;;;;;;4113854;28;20059;-43
2022/11/25 04:20:29;;;;;;;0.15;0.10;;;;;;;;;;4121294;28;20059;-42
2022/11/25 04:22:36;;;;;;;0.22;0.20;;;;;;;;;;4129097;28;20098;-42
2022/11/25 04:24:40;;;;;;;0.38;0.17;;;;;;;;;;4114852;28;20055;-43
2022/11/25 04:26:42;;;;;;;0.20;0.20;;;;;;;;;;4141207;28;20046;-41
2022/11/25 04:28:43;;;;;;;0.13;0.13;;;;;;;;;;4146010;28;20489;-42
2022/11/25 04:30:45;;;;;;;0.30;0.20;;;;;;;;;;4118765;28;20494;-42
2022/11/25 04:32:47;;;;;;;0.20;0.20;;;;;;;;;;4127052;28;20106;-44
2022/11/25 04:34:49;;;;;;;0.47;0.30;;;;;;;;;;4134683;28;20181;-42
2022/11/25 04:36:50;;;;;;;0.20;0.20;;;;;;;;;;4154624;28;20058;-44
2022/11/25 04:38:52;;;;;;;0.20;0.20;;;;;;;;;;4139645;28;20065;-43
2022/11/25 04:40:56;;;;;;;0.57;0.45;;;;;;;;;;4145321;28;20066;-44
2022/11/25 04:42:57;;;;;;;0.22;0.20;;;;;;;;;;4116510;28;20058;-42
2022/11/25 04:45:05;;;;;;;0.10;0.10;;;;;;;;;;4123402;28;20465;-43
2022/11/25 04:47:06;;;;;;;0.20;0.20;;;;;;;;;;4139775;28;20058;-42
2022/11/25 04:49:09;;;;;;;0.38;0.20;;;;;;;;;;4143798;28;20057;-44
2022/11/25 04:51:10;;;;;;;0.10;0.10;;;;;;;;;;4128860;28;20522;-44
2022/11/25 04:53:12;;;;;;;0.20;0.20;;;;;;;;;;4161719;28;20061;-42
2022/11/25 04:55:14;;;;;;;0.15;0.15;;;;;;;;;;4152186;28;20053;-43
2022/11/25 04:57:17;;;;;;;0.40;0.20;;;;;;;;;;4141784;28;20054;-42
2022/11/25 05:01:39;;;;;;;0.25;0.20;;;;;;;;;;4134314;28;20433;-43
2022/11/25 05:03:58;;;;;;;0.20;0.20;;;;;;;;;;4158873;28;20053;-42
2022/11/25 05:06:06;;;;;;;0.40;0.25;;;;;;;;;;4144792;28;20510;-42
2022/11/25 05:08:07;;;;;;;0.17;0.17;;;;;;;;;;4129202;28;20382;-42
2022/11/25 05:10:09;;;;;;;0.20;0.20;;;;;;;;;;4128735;28;20498;-42
2022/11/25 05:12:21;;;;;;;0.40;0.28;;;;;;;;;;4112673;28;20054;-42
2022/11/25 05:14:24;;;;;;;0.20;0.20;;;;;;;;;;4150707;28;20107;-42
2022/11/25 05:16:25;;;;;;;0.10;0.10;;;;;;;;;;4129051;28;20051;-42
2022/11/25 05:18:27;;;;;;;0.20;0.10;;;;;;;;;;4145511;28;20571;-42
2022/11/25 05:20:28;;;;;;;0.32;0.20;;;;;;;;;;4143970;28;20096;-42
2022/11/25 05:22:31;;;;;;;0.10;0.10;;;;;;;;;;4133629;28;20075;-43
2022/11/25 05:24:32;;;;;;;0.20;0.20;;;;;;;;;;4129177;28;20092;-45
2022/11/25 05:26:33;;;;;;;0.15;0.15;;;;;;;;;;4128780;28;20528;-43
2022/11/25 05:28:35;;;;;;;0.10;0.10;;;;;;;;;;4128938;28;20434;-42
2022/11/25 05:30:37;;;;;;;0.20;0.20;;;;;;;;;;4129007;28;20054;-43
2022/11/25 05:32:39;;;;;;;0.40;0.22;;;;;;;;;;4106412;28;20055;-42
2022/11/25 05:34:44;;;;;;;0.20;0.20;;;;;;;;;;4112913;28;20062;-43
2022/11/25 05:36:50;;;;;;;0.20;0.20;;;;;;;;;;4109186;28;20047;-43
2022/11/25 05:38:51;;;;;;;0.10;0.10;;;;;;;;;;4132192;28;20050;-42
2022/11/25 05:41:05;;;;;;;0.10;0.10;;;;;;;;;;4128512;28;20109;-42
2022/11/25 05:43:07;;;;;;;0.13;0.13;;;;;;;;;;4124321;28;20141;-42
2022/11/25 05:45:11;;;;;;;0.20;0.10;;;;;;;;;;4128306;28;20066;-44
2022/11/25 05:47:12;;;;;;;0.30;0.30;;;;;;;;;;4108001;28;20059;-42
2022/11/25 05:49:15;;;;;;;0.35;0.10;;;;;;;;;;4112521;28;20055;-42
2022/11/25 05:51:16;;;;;;;0.20;0.20;;;;;;;;;;4107193;28;20589;-42
2022/11/25 05:53:18;;;;;;;0.30;0.20;;;;;;;;;;4143932;28;20053;-43
2022/11/25 05:55:21;;;;;;;1.40;0.40;;;;;;;;;;4128682;28;20175;-43
2022/11/25 05:57:23;;;;;;;0.20;0.20;;;;;;;;;;4128500;28;20062;-42
2022/11/25 05:59:45;;;;;;;0.30;0.20;;;;;;;;;;4132604;28;20497;-47
2022/11/25 06:01:53;;;;;;;0.68;0.20;;;;;;;;;;4124367;28;20078;-42
2022/11/25 06:03:58;;;;;;;1.20;0.30;;;;;;;;;;4158836;28;20088;-42
2022/11/25 06:06:00;;;;;;;0.50;0.30;;;;;;;;;;4158422;28;20053;-42
2022/11/25 06:08:01;;;;;;;0.10;0.10;;;;;;;;;;4142228;28;20193;-42
2022/11/25 06:10:03;;;;;;;0.20;0.17;;;;;;;;;;4126143;28;20067;-42
2022/11/25 06:12:06;;;;;;;0.10;0.10;;;;;;;;;;4142122;28;20077;-43
2022/11/25 06:14:11;;;;;;;0.35;0.20;;;;;;;;;;4132326;28;20061;-42
2022/11/25 06:16:16;;;;;;;0.10;0.10;;;;;;;;;;4139601;28;20521;-43
2022/11/25 06:18:19;;;;;;;0.15;0.15;;;;;;;;;;4105116;28;20055;-43
2022/11/25 06:20:21;;;;;;;2.30;0.20;;;;;;;;;;4120177;28;20054;-43
2022/11/25 06:22:23;;;;;;;0.10;0.10;;;;;;;;;;4132013;28;20492;-43
2022/11/25 06:24:24;;;;;;;0.20;0.20;;;;;;;;;;4137450;28;20058;-42
2022/11/25 06:26:31;;;;;;;0.40;0.20;;;;;;;;;;4140050;28;20488;-42
2022/11/25 06:28:33;;;;;;;0.10;0.10;;;;;;;;;;4119157;28;20495;-42
2022/11/25 06:30:35;;;;;;;0.15;0.15;;;;;;;;;;4120261;28;20433;-42
2022/11/25 06:32:58;;;;;;;0.40;0.30;;;;;;;;;;4123610;28;20057;-43
2022/11/25 06:34:59;;;;;;;0.30;0.20;;;;;;;;;;4147623;28;20499;-43
2022/11/25 06:37:19;;;;;;;0.10;0.10;;;;;;;;;;4145056;28;20061;-44
2022/11/25 06:39:21;;;;;;;0.68;0.20;;;;;;;;;;4131415;28;20422;-43
2022/11/25 06:41:22;;;;;;;0.20;0.20;;;;;;;;;;4121225;28;20058;-42
2022/11/25 06:43:23;;;;;;;0.73;0.20;;;;;;;;;;4131326;28;20065;-44
2022/11/25 06:45:25;;;;;;;0.17;0.17;;;;;;;;;;4146439;28;20050;-42
2022/11/25 06:47:26;;;;;;;0.10;0.10;;;;;;;;;;4144118;28;20709;-42
2022/11/25 06:49:28;;;;;;;0.10;0.10;;;;;;;;;;4147476;28;20456;-43
2022/11/25 06:51:29;;;;;;;0.25;0.20;;;;;;;;;;4129519;28;20050;-42
2022/11/25 06:53:31;;;;;;;0.10;0.10;;;;;;;;;;4146923;28;20058;-42
2022/11/25 06:55:32;;;;;;;0.20;0.20;;;;;;;;;;4141588;28;20054;-42
2022/11/25 06:57:33;;;;;;;0.20;0.15;;;;;;;;;;4141369;28;20065;-42
2022/11/25 06:59:35;;;;;;;0.20;0.10;;;;;;;;;;4129596;28;20081;-42
2022/11/25 07:01:37;;;;;;;0.10;0.10;;;;;;;;;;4161826;28;20520;-44
2022/11/25 07:03:38;;;;;;;0.10;0.10;;;;;;;;;;4123967;28;20097;-44
2022/11/25 07:05:39;;;;;;;0.30;0.15;;;;;;;;;;4137792;28;20108;-42
2022/11/25 07:07:41;;;;;;;0.43;0.20;;;;;;;;;;4145221;28;20574;-42
2022/11/25 07:09:42;;;;;;;0.28;0.10;;;;;;;;;;4141622;28;20050;-42
2022/11/25 07:11:44;;;;;;;0.28;0.20;;;;;;;;;;4127763;28;20584;-45
2022/11/25 07:13:46;;;;;;;0.10;0.10;;;;;;;;;;4141865;28;20064;-45
2022/11/25 07:15:48;;;;;;;1.48;0.10;;;;;;;;;;4143811;28;20107;-43
2022/11/25 07:17:49;;;;;;;0.10;0.10;;;;;;;;;;4139525;28;20402;-43
2022/11/25 07:19:51;;;;;;;0.17;0.17;;;;;;;;;;4143054;28;20058;-44
2022/11/25 07:21:52;;;;;;;1.10;0.20;;;;;;;;;;4132846;28;20166;-43
2022/11/25 07:23:53;;;;;;;0.10;0.10;;;;;;;;;;4143151;28;20113;-42
2022/11/25 07:25:55;;;;;;;0.10;0.10;;;;;;;;;;4123177;28;20474;-45
2022/11/25 07:27:56;;;;;;;1.65;0.20;;;;;;;;;;4106043;28;20608;-43
2022/11/25 07:29:57;;;;;;;0.73;0.10;;;;;;;;;;4152737;28;20402;-43
2022/11/25 07:31:58;;;;;;;0.10;0.10;;;;;;;;;;4137125;28;20115;-43
2022/11/25 07:34:19;;;;;;;0.20;0.20;;;;;;;;;;4143018;28;20056;-46
2022/11/25 07:36:21;;;;;;;0.88;0.15;;;;;;;;;;4141987;28;20096;-44
2022/11/25 07:38:22;;;;;;;0.30;0.20;;;;;;;;;;4124312;28;20595;-52
2022/11/25 07:40:23;;;;;;;0.65;0.20;;;;;;;;;;4145048;28;20108;-43
2022/11/25 07:42:25;;;;;;;0.38;0.20;;;;;;;;;;4148391;28;20280;-44
2022/11/25 07:44:26;;;;;;;0.10;0.10;;;;;;;;;;4146558;28;20062;-43
2022/11/25 07:46:37;;;;;;;3.00;0.10;;;;;;;;;;4113761;28;20054;-42
2022/11/25 07:48:39;;;;;;;0.30;0.20;;;;;;;;;;4131919;28;20501;-44
2022/11/25 07:50:41;;;;;;;0.38;0.10;;;;;;;;;;4132395;28;20053;-42
2022/11/25 07:52:42;;;;;;;1.67;0.20;;;;;;;;;;4144963;28;20470;-44
2022/11/25 07:54:44;;;;;;;0.60;0.20;;;;;;;;;;4131113;28;20061;-42
2022/11/25 07:56:45;;;;;;;0.20;0.17;;;;;;;;;;4120564;28;20101;-43
2022/11/25 07:58:47;;;;;;;0.40;0.13;;;;;;;;;;4130131;28;20050;-43
2022/11/25 08:00:48;;;;;;;0.77;0.20;;;;;;;;;;4129382;28;20058;-43
2022/11/25 08:02:49;;;;;;;0.10;0.10;;;;;;;;;;4122835;28;20057;-43
2022/11/25 08:04:51;;;;;;;0.20;0.20;;;;;;;;;;4105389;28;20061;-43
2022/11/25 08:06:52;;;;;;;0.20;0.20;;;;;;;;;;4131822;28;20053;-41
2022/11/25 08:08:55;;;;;;;0.28;0.20;;;;;;;;;;4135197;28;20492;-41
2022/11/25 08:10:57;;;;;;;1.23;0.20;;;;;;;;;;4137910;28;20454;-41
2022/11/25 08:12:58;;;;;;;1.75;0.20;;;;;;;;;;4133740;28;20053;-41
2022/11/25 08:14:59;;;;;;;0.70;0.20;;;;;;;;;;4133188;28;20496;-41
2022/11/25 08:17:03;;;;;;;1.75;0.20;;;;;;;;;;4128556;28;20104;-41
2022/11/25 08:19:07;;;;;;;0.10;0.10;;;;;;;;;;4149951;28;20061;-44
2022/11/25 08:21:10;;;;;;;0.35;0.30;;;;;;;;;;4130232;28;20058;-42
2022/11/25 08:23:11;;;;;;;0.32;0.10;;;;;;;;;;4121047;28;20055;-41
2022/11/25 08:25:13;;;;;;;1.67;0.22;;;;;;;;;;4137650;28;20450;-43
2022/11/25 08:27:14;;;;;;;0.25;0.20;;;;;;;;;;4135011;28;20085;-41
2022/11/25 08:29:17;;;;;;;0.20;0.17;;;;;;;;;;4131626;28;20054;-44
2022/11/25 08:31:21;;;;;;;6.80;0.82;;;;;;;;;;4138316;28;20057;-42
2022/11/25 08:33:22;;;;;;;0.47;0.20;;;;;;;;;;4133718;28;20054;-41
2022/11/25 08:35:24;;;;;;;0.28;0.25;;;;;;;;;;4139657;28;20057;-41
2022/11/25 08:37:25;;;;;;;0.20;0.17;;;;;;;;;;4132668;28;20049;-41
2022/11/25 08:39:26;;;;;;;0.17;0.15;;;;;;;;;;4134052;28;20112;-44
2022/11/25 08:41:30;;;;;;;0.30;0.20;;;;;;;;;;4149119;28;20083;-42
2022/11/25 08:43:31;;;;;;;0.30;0.20;;;;;;;;;;4134584;28;20519;-42
2022/11/25 08:45:33;;;;;;;1.45;0.20;;;;;;;;;;4131804;28;20050;-41
2022/11/25 08:47:35;;;;;;;0.52;0.30;;;;;;;;;;4134044;28;20434;-42
2022/11/25 08:49:37;;;;;;;0.38;0.20;;;;;;;;;;4133882;28;20116;-43
2022/11/25 08:51:39;;;;;;;0.30;0.30;;;;;;;;;;4146560;28;20053;-42
2022/11/25 08:53:41;;;;;;;0.25;0.20;;;;;;;;;;4123101;28;21221;-44
2022/11/25 08:55:42;;;;;;;0.73;0.20;;;;;;;;;;4133877;28;20170;-44
2022/11/25 08:57:44;;;;;;;0.68;0.40;;;;;;;;;;4128876;28;20050;-43
2022/11/25 08:59:45;;;;;;;0.50;0.40;;;;;;;;;;4112447;28;20062;-43
2022/11/25 09:01:46;;;;;;;1.60;0.30;;;;;;;;;;4143552;28;20099;-43
2022/11/25 09:03:50;;;;;;;0.63;0.30;;;;;;;;;;4128708;28;20054;-43
2022/11/25 09:05:52;;;;;;;0.80;0.20;;;;;;;;;;4129108;28;20390;-43
2022/11/25 09:07:54;;;;;;;0.80;0.40;;;;;;;;;;4115022;28;20103;-44
2022/11/25 09:09:55;;;;;;;0.63;0.35;;;;;;;;;;4120186;28;20440;-43
2022/11/25 09:11:56;;;;;;;0.85;0.40;;;;;;;;;;4109442;28;20133;-43
2022/11/25 09:13:58;;;;;;;1.30;0.43;;;;;;;;;;4100375;28;20104;-43
2022/11/25 09:16:00;;;;;;;1.65;0.38;;;;;;;;;;4104682;28;20073;-43
2022/11/25 09:18:07;;;;;;;0.47;0.20;;;;;;;;;;4114168;28;20195;-43
2022/11/25 09:20:09;;;;;;;0.95;0.50;;;;;;;;;;4111959;28;20062;-44
2022/11/25 09:22:10;;;;;;;1.35;0.50;;;;;;;;;;4112490;28;20050;-43
2022/11/25 09:24:11;;;;;;;0.88;0.30;;;;;;;;;;4109926;28;20097;-43
2022/11/25 09:26:22;;;;;;;0.45;0.35;;;;;;;;;;4109235;28;20065;-44
2022/11/25 09:28:25;;;;;;;0.82;0.35;;;;;;;;;;4106020;28;20054;-44
2022/11/25 09:30:26;;;;;;;0.30;0.30;;;;;;;;;;4106510;28;21362;-44
2022/11/25 09:32:27;;;;;;;0.70;0.40;;;;;;;;;;4102582;28;20135;-43
2022/11/25 09:34:28;;;;;;;0.70;0.40;;;;;;;;;;4117617;28;20112;-43
2022/11/25 09:36:30;;;;;;;0.75;0.35;;;;;;;;;;4117498;28;20042;-44
2022/11/25 09:38:31;;;;;;;1.30;0.47;;;;;;;;;;4101272;28;20129;-42
2022/11/25 09:40:53;;;;;;;0.88;0.40;;;;;;;;;;4116107;28;20247;-42
2022/11/25 09:48:24;;;;;;;0.55;0.30;;;;;;;;;;4118686;28;20506;-43
2022/11/25 09:50:53;;;;;;;0.50;0.50;;;;;;;;;;4106675;28;20485;-44
2022/11/25 09:53:00;;;;;;;0.98;0.50;;;;;;;;;;4117747;28;20054;-43
2022/11/25 09:55:05;;;;;;;0.75;0.30;;;;;;;;;;4113688;28;20481;-42
2022/11/25 09:57:15;;;;;;;0.63;0.43;;;;;;;;;;4133186;28;20045;-43
2022/11/25 09:59:36;;;;;;;0.40;0.25;;;;;;;;;;4114985;28;20085;-42
2022/11/25 10:01:54;;;;;;;1.05;0.30;;;;;;;;;;4112411;28;20063;-43
2022/11/25 10:04:10;;;;;;;0.93;0.50;;;;;;;;;;4094485;28;20130;-43
2022/11/25 10:06:17;;;;;;;0.65;0.40;;;;;;;;;;4089198;28;20054;-43
2022/11/25 10:08:21;;;;;;;0.98;0.40;;;;;;;;;;4105642;28;20490;-42
2022/11/25 10:10:26;;;;;;;1.23;0.50;;;;;;;;;;4102161;28;20061;-43
2022/11/25 10:12:30;;;;;;;0.75;0.38;;;;;;;;;;4096072;28;20062;-43
2022/11/25 10:14:42;;;;;;;1.15;0.50;;;;;;;;;;4134612;28;20054;-42
2022/11/25 10:16:56;;;;;;;0.50;0.30;;;;;;;;;;4127150;28;20108;-42
2022/11/25 10:19:33;;;;;;;0.60;0.50;;;;;;;;;;4111592;28;20148;-43
2022/11/25 10:21:34;;;;;;;1.55;0.47;;;;;;;;;;4131633;28;20085;-42
2022/11/25 10:23:37;;;;;;;0.73;0.50;;;;;;;;;;4132121;28;20156;-45
2022/11/25 10:25:44;;;;;;;0.40;0.40;;;;;;;;;;4138011;28;20568;-43
2022/11/25 10:27:58;;;;;;;0.75;0.35;;;;;;;;;;4138423;28;20075;-42
2022/11/25 10:30:04;;;;;;;0.47;0.30;;;;;;;;;;4137890;28;20747;-43
2022/11/25 10:32:22;;;;;;;0.60;0.57;;;;;;;;;;4138889;28;20128;-42
2022/11/25 10:34:40;;;;;;;0.60;0.40;;;;;;;;;;4127458;28;20889;-43
2022/11/25 10:36:43;;;;;;;0.80;0.60;;;;;;;;;;4140976;28;20052;-43
2022/11/25 10:38:55;;;;;;;0.88;0.40;;;;;;;;;;4124852;28;20128;-43
2022/11/25 10:40:57;;;;;;;0.50;0.47;;;;;;;;;;4129572;28;20058;-43
2022/11/25 10:43:00;;;;;;;0.50;0.40;;;;;;;;;;4131238;28;20064;-44
2022/11/25 10:45:07;;;;;;;1.50;0.45;;;;;;;;;;4156488;28;20100;-42
2022/11/25 10:47:42;;;;;;;1.63;0.40;;;;;;;;;;4132704;28;20119;-46
2022/11/25 10:50:03;;;;;;;0.32;0.32;;;;;;;;;;4139195;28;20057;-41
2022/11/25 10:52:12;;;;;;;0.90;0.60;;;;;;;;;;4121237;28;20060;-40
2022/11/25 10:54:24;;;;;;;1.13;0.30;;;;;;;;;;4130686;28;20105;-43
2022/11/25 10:56:26;;;;;;;0.60;0.57;;;;;;;;;;4132334;28;20063;-43
2022/11/25 10:58:30;;;;;;;0.40;0.40;;;;;;;;;;4136173;28;20136;-39
2022/11/25 11:00:34;;;;;;;0.52;0.52;;;;;;;;;;4137585;28;20053;-40
2022/11/25 11:02:39;;;;;;;0.75;0.47;;;;;;;;;;4134808;28;22001;-39
2022/11/25 11:05:01;;;;;;;2.15;0.40;;;;;;;;;;4134569;28;20537;-40
2022/11/25 11:07:08;;;;;;;1.10;0.40;;;;;;;;;;4147156;28;20290;-41
2022/11/25 11:09:35;;;;;;;0.68;0.40;;;;;;;;;;4125322;28;20569;-40
2022/11/25 11:11:47;;;;;;;0.52;0.38;;;;;;;;;;4116841;28;20241;-39
2022/11/25 11:13:57;;;;;;;0.50;0.40;;;;;;;;;;4125019;28;20063;-40
2022/11/25 11:15:58;;;;;;;2.38;0.73;;;;;;;;;;4111957;28;20047;-39
2022/11/25 11:18:29;;;;;;;2.20;0.70;;;;;;;;;;4115879;28;20083;-40
2022/11/25 11:20:30;;;;;;;0.47;0.43;;;;;;;;;;4111919;28;20057;-39
2022/11/25 11:22:33;;;;;;;0.57;0.47;;;;;;;;;;4118843;28;20062;-39
2022/11/25 11:24:36;;;;;;;0.50;0.40;;;;;;;;;;4121514;28;20068;-41
2022/11/25 11:26:37;;;;;;;1.02;0.63;;;;;;;;;;4123452;28;20059;-40
2022/11/25 11:28:40;;;;;;;0.55;0.50;;;;;;;;;;4135518;28;20058;-40
2022/11/25 11:30:53;;;;;;;2.65;0.52;;;;;;;;;;4129938;28;20105;-40
2022/11/25 11:32:58;;;;;;;1.05;0.60;;;;;;;;;;4101230;28;20053;-42
2022/11/25 11:35:08;;;;;;;1.08;0.50;;;;;;;;;;4131447;28;20050;-42
2022/11/25 11:37:33;;;;;;;1.85;0.55;;;;;;;;;;4104467;28;20105;-40
2022/11/25 11:40:11;;;;;;;1.48;0.55;;;;;;;;;;4117712;28;20053;-40
2022/11/25 11:42:23;;;;;;;0.75;0.50;;;;;;;;;;4105902;28;20406;-40
2022/11/25 11:44:48;;;;;;;0.50;0.50;;;;;;;;;;4104836;28;20050;-41
2022/11/25 11:47:10;;;;;;;0.57;0.57;;;;;;;;;;4101545;28;20609;-39
2022/11/25 11:49:26;;;;;;;1.02;0.63;;;;;;;;;;4119860;28;20049;-39
2022/11/25 11:51:41;;;;;;;1.05;0.60;;;;;;;;;;4101940;28;20066;-39
2022/11/25 11:54:00;;;;;;;0.70;0.60;;;;;;;;;;4109706;28;20054;-40
2022/11/25 11:56:13;;;;;;;0.65;0.60;;;;;;;;;;4113015;28;20053;-40
2022/11/25 11:58:54;;;;;;;0.50;0.40;;;;;;;;;;4096263;28;20058;-39
2022/11/25 12:01:27;;;;;;;0.63;0.50;;;;;;;;;;4098063;28;20120;-42
2022/11/25 12:03:34;;;;;;;0.80;0.60;;;;;;;;;;4110776;28;20061;-41
2022/11/25 12:05:36;;;;;;;0.70;0.60;;;;;;;;;;4119731;28;20133;-41
2022/11/25 12:08:16;;;;;;;1.05;0.60;;;;;;;;;;4115087;28;20062;-39
2022/11/25 12:10:26;;;;;;;1.42;0.60;;;;;;;;;;4134828;28;20065;-40
2022/11/25 12:12:37;;;;;;;0.60;0.60;;;;;;;;;;4113599;28;20055;-40
2022/11/25 12:14:42;;;;;;;0.70;0.70;;;;;;;;;;4099302;28;20050;-40
2022/11/25 12:16:51;;;;;;;0.60;0.60;;;;;;;;;;4114209;28;20106;-40
2022/11/25 12:19:09;;;;;;;0.98;0.88;;;;;;;;;;4086875;28;20059;-39
2022/11/25 12:21:45;;;;;;;0.53;0.50;;;;;;;;;;4131479;28;20184;-39
2022/11/25 12:23:58;;;;;;;0.55;0.50;;;;;;;;;;4118074;28;20693;-38
2022/11/25 12:26:02;;;;;;;0.80;0.80;;;;;;;;;;4109138;28;21104;-39
2022/11/25 12:28:10;;;;;;;0.93;0.77;;;;;;;;;;4114372;28;20188;-39
2022/11/25 12:30:16;;;;;;;0.82;0.70;;;;;;;;;;4114341;28;20109;-39
2022/11/25 12:32:29;;;;;;;1.65;1.15;;;;;;;;;;4119084;28;20061;-39
2022/11/25 12:34:39;;;;;;;1.20;0.90;;;;;;;;;;4116998;28;20506;-39
2022/11/25 12:36:43;;;;;;;0.70;0.50;;;;;;;;;;4116523;28;20104;-38
2022/11/25 12:38:55;;;;;;;2.25;0.60;;;;;;;;;;4110013;28;20059;-38
2022/11/25 12:41:08;;;;;;;0.95;0.88;;;;;;;;;;4124140;28;20136;-39
2022/11/25 12:43:31;;;;;;;1.10;0.77;;;;;;;;;;4121033;28;20054;-39